Terminal Aerodrome Forecast
Issued by NWS

Home | Current Version | Previous Version | Text Only | Print | Product List | Glossary Off
Versions: 1 2 3 4 5 6 7 8 9 10 11 12 13 14 15 16 17

077
FTUS43 KBIS 031120
TAFDIK
TAF
KDIK 031120Z 0312/0412 19008KT P6SM FEW250
     FM032300 25011KT P6SM BKN050
     FM040400 28012G20KT P6SM BKN020
     FM040800 27010KT P6SM SCT030=

USA.gov is the U.S. government's official web portal to all federal, state and local government web resources and services.